MSC Regina — 3FGF9 — position and weather

sailwx.info

Track history (hours):
 
Tides and Currents Weather Stations Pressure Air Temp Water Temp Dewpoint Dewpoint Depression Visibility Wind Speed Wind Dir Waves Ship Positions

MSC Regina

Last reported at 2014-Sep-30 08:33 UTC. Time now 2014-Oct-02 00:26 UTC.
Position N 38°07' W 009°32'.

Length 259 m; draft 11 m.

Type: Ship (hazmat cat A). MMSI: 357332000.

Date/timePositionNaut miles runAvg speedWind from/ knotsBaromVisibWave heightAir tempDewpointWater temp
2014-Sep-30 08:33N 38°07' W 009°32'1918.7
2014-Sep-30 07:33N 37°58' W 009°11'1716.9
2014-Sep-30 06:33N 37°54' W 008°51'2 1.6
2014-Sep-30 05:33N 37°56' W 008°51'0 0.0
2014-Sep-30 04:33N 37°56' W 008°51'0 0.0
2014-Sep-30 03:33N 37°56' W 008°51'0 0.0
2014-Sep-30 02:30N 37°56' W 008°51'0 0.0
2014-Sep-30 01:33N 37°56' W 008°51'0 0.0
2014-Sep-30 00:33N 37°56' W 008°51'0 0.0
2014-Sep-29 23:33N 37°56' W 008°51'0 0.0
2014-Sep-29 22:30N 37°56' W 008°51'0 0.0
2014-Sep-29 21:33N 37°56' W 008°51'0 0.0
2014-Sep-29 20:33N 37°56' W 008°51'0 0.0
2014-Sep-29 19:30N 37°56' W 008°51'0 0.0
2014-Sep-29 18:33N 37°56' W 008°51'0 0.0
2014-Sep-29 17:33N 37°56' W 008°51'0 0.0
2014-Sep-29 16:33N 37°56' W 008°51'0 0.0
2014-Sep-29 15:33N 37°56' W 008°51'0 0.0
2014-Sep-29 14:33N 37°56' W 008°51'0 0.0
2014-Sep-29 13:33N 37°56' W 008°51'0 0.0
2014-Sep-29 12:33N 37°56' W 008°51'0 0.0
2014-Sep-29 10:30N 37°56' W 008°51'3 1.1
2014-Sep-29 07:31N 37°53' W 008°51'13 6.5
2014-Sep-29 05:34N 37°41' W 008°58'1715.7
2014-Sep-29 04:27N 37°25' W 009°07'3518.0
2014-Sep-29 02:30N 36°51' W 009°17'1919.6
2014-Sep-29 01:33N 36°41' W 008°57'2020.0
2014-Sep-29 00:33N 36°35' W 008°34'2020.1
2014-Sep-28 23:33N 36°29' W 008°10'13619.3
2014-Sep-28 16:29N 36°01' W 005°24'23219.3
2014-Sep-28 04:30N 37°21' W 000°53'2221.8
2014-Sep-28 03:30N 37°35' W 000°32'2021.1
2014-Sep-28 02:33N 37°52' W 000°19'9217.2
2014-Sep-27 21:13N 39°24' W 000°14'4 6.8
2014-Sep-27 20:33N 39°26' W 000°19'0 0.0
2014-Sep-27 19:31N 39°26' W 000°19'0 0.0
2014-Sep-27 18:31N 39°26' W 000°19'0 0.0
2014-Sep-27 17:31N 39°26' W 000°19'0 0.0
2014-Sep-27 16:28N 39°26' W 000°19'0 0.0
2014-Sep-27 15:31N 39°26' W 000°19'0 0.0
2014-Sep-27 14:07N 39°26' W 000°19'0 0.0
2014-Sep-27 13:28N 39°26' W 000°19'0 0.0
2014-Sep-27 12:28N 39°26' W 000°19'0 0.0
2014-Sep-27 11:16N 39°26' W 000°19'0 0.0
2014-Sep-27 10:31N 39°26' W 000°19'0 0.0
2014-Sep-27 09:31N 39°26' W 000°19'0 0.0
2014-Sep-27 08:28N 39°26' W 000°19'0 0.0
2014-Sep-27 07:31N 39°26' W 000°19'0 0.0
2014-Sep-27 06:28N 39°26' W 000°19'1 0.8
2014-Sep-27 05:33N 39°26' W 000°18'9 9.5
2014-Sep-27 04:33N 39°28' W 000°07'5919.5
2014-Sep-27 01:33N 39°54' E 001°02'2019.6
2014-Sep-27 00:33N 40°05' E 001°23'1919.5
2014-Sep-26 23:33N 40°15' E 001°45'1919.5
2014-Sep-26 22:33N 40°25' E 002°07'1919.3
2014-Sep-26 21:33N 40°35' E 002°28'2019.8
2014-Sep-26 20:33N 40°46' E 002°50'2020.1
2014-Sep-26 19:33N 40°57' E 003°13'2820.2
2014-Sep-26 18:09N 41°12' E 003°44'1219.3
2014-Sep-26 17:31N 41°18' E 003°59'1819.4
2014-Sep-26 16:33N 41°28' E 004°20'2019.7
2014-Sep-26 15:32N 41°38' E 004°43'2220.2
2014-Sep-26 14:27N 41°49' E 005°08'1919.4
2014-Sep-26 13:28N 42°00' E 005°29'2519.7
2014-Sep-26 12:12N 42°14' E 005°57'5219.6
2014-Sep-26 09:33N 42°41' E 006°57'2019.9
2014-Sep-26 08:33N 42°51' E 007°20'8120.1
2014-Sep-26 04:33N 43°34' E 008°54'2019.6
2014-Sep-26 03:33N 43°45' E 009°16'1919.5
2014-Sep-26 02:33N 43°55' E 009°39'1313.4
2014-Sep-26 01:33N 44°06' E 009°51'1 0.8
2014-Sep-26 00:33N 44°06' E 009°51'0 0.0
2014-Sep-25 23:31N 44°06' E 009°51'0 0.0
2014-Sep-25 22:31N 44°06' E 009°51'0 0.0
2014-Sep-25 21:31N 44°06' E 009°51'0 0.0
2014-Sep-25 20:31N 44°06' E 009°51'0 0.0
2014-Sep-25 19:31N 44°06' E 009°51'0 0.0
2014-Sep-25 18:31N 44°06' E 009°51'0 0.0
2014-Sep-25 17:31N 44°06' E 009°51'0 0.0
2014-Sep-25 16:31N 44°06' E 009°51'0 0.0
2014-Sep-25 15:31N 44°06' E 009°51'0 0.0
2014-Sep-25 14:31N 44°06' E 009°51'0 0.0
2014-Sep-25 13:31N 44°06' E 009°51'0 0.0
2014-Sep-25 12:31N 44°06' E 009°51'0 0.0
2014-Sep-25 11:31N 44°06' E 009°51'0 0.0
2014-Sep-25 10:31N 44°06' E 009°51'0 0.0
2014-Sep-25 09:31N 44°06' E 009°51'0 0.0
2014-Sep-25 08:31N 44°06' E 009°51'0 0.0
2014-Sep-25 07:31N 44°06' E 009°51'0 0.0
2014-Sep-25 06:31N 44°06' E 009°51'0 0.0
2014-Sep-25 05:31N 44°06' E 009°51'0 0.0
2014-Sep-25 04:31N 44°06' E 009°51'0 0.0
2014-Sep-25 03:31N 44°06' E 009°51'0 0.0
2014-Sep-25 02:31N 44°06' E 009°51'0 0.0
2014-Sep-25 01:31N 44°06' E 009°51'0 0.0
2014-Sep-25 00:31N 44°06' E 009°51'0 0.0
2014-Sep-24 23:31N 44°06' E 009°51'0 0.0
2014-Sep-24 22:31N 44°06' E 009°51'4 4.3
2014-Sep-24 21:33N 44°03' E 009°53'1211.9
2014-Sep-24 20:33N 43°51' E 009°52'1413.8
2014-Sep-24 19:34N 43°38' E 009°46'1515.2
2014-Sep-24 18:34N 43°23' E 009°46'1615.7
2014-Sep-24 17:34N 43°09' E 009°56'1515.0
2014-Sep-24 16:33N 42°54' E 010°01'1514.7
2014-Sep-24 15:32N 42°40' E 010°07'1515.5
2014-Sep-24 14:33N 42°29' E 010°23'1515.5
2014-Sep-24 13:33N 42°19' E 010°38'311 6.3
2014-Sep-22 12:11N 38°17' E 014°55'4616.0
2014-Sep-22 09:18N 38°17' E 013°56'1216.2
2014-Sep-22 08:33N 38°17' E 013°41'1616.0
2014-Sep-22 07:33N 38°17' E 013°20'1616.3
2014-Sep-22 06:33N 38°16' E 012°59'1615.8
2014-Sep-22 05:33N 38°16' E 012°39'11815.9
2014-Sep-21 22:06N 37°59' E 010°10'916.1
2014-Sep-21 21:32N 37°58' E 009°59'1616.1
2014-Sep-21 20:33N 37°56' E 009°39'1616.3
2014-Sep-21 19:33N 37°53' E 009°19'1616.5
2014-Sep-21 18:33N 37°50' E 008°58'1716.5
2014-Sep-21 17:33N 37°47' E 008°38'1716.3
2014-Sep-21 16:32N 37°45' E 008°17'7116.1
2014-Sep-21 12:09N 37°33' E 006°49'4216.1
2014-Sep-21 09:30N 37°26' E 005°56'3717.6
2014-Sep-21 07:25N 37°20' E 005°10'4219.1
2014-Sep-21 05:12N 37°14' E 004°18'3819.7
2014-Sep-21 03:17N 37°07' E 003°31'1419.6
2014-Sep-21 02:33N 37°05' E 003°13'2019.8
2014-Sep-21 01:33N 37°02' E 002°49'2019.7
2014-Sep-21 00:33N 36°59' E 002°25'2019.7
2014-Sep-20 23:33N 36°55' E 002°00'2019.9
2014-Sep-20 22:34N 36°52' E 001°36'6119.4
2014-Sep-20 19:26N 36°42' E 000°21'1719.5
2014-Sep-20 18:33N 36°39' E 000°00'2019.5
2014-Sep-20 17:31N 36°36' W 000°25'1818.9
2014-Sep-20 16:33N 36°33' W 000°47'4319.3
2014-Sep-20 14:19N 36°26' W 001°40'1619.2
2014-Sep-20 13:28N 36°23' W 001°60'  
Track history (hours):
 
Tides and Currents Weather Stations Pressure Air Temp Water Temp Dewpoint Dewpoint Depression Visibility Wind Speed Wind Dir Waves Ship Positions

MSC Regina

Last reported at 2014-Sep-30 08:33 UTC. Time now 2014-Oct-02 00:26 UTC.
Position N 38°07' W 009°32'.

Length 259 m; draft 11 m.

Type: Ship (hazmat cat A). MMSI: 357332000.

Date/timePositionNaut miles runAvg speedWind from/ knotsBaromVisibWave heightAir tempDewpointWater temp
2014-Sep-30 08:33N 38°07' W 009°32'1918.7
2014-Sep-30 07:33N 37°58' W 009°11'1716.9
2014-Sep-30 06:33N 37°54' W 008°51'2 1.6
2014-Sep-30 05:33N 37°56' W 008°51'0 0.0
2014-Sep-30 04:33N 37°56' W 008°51'0 0.0
2014-Sep-30 03:33N 37°56' W 008°51'0 0.0
2014-Sep-30 02:30N 37°56' W 008°51'0 0.0
2014-Sep-30 01:33N 37°56' W 008°51'0 0.0
2014-Sep-30 00:33N 37°56' W 008°51'0 0.0
2014-Sep-29 23:33N 37°56' W 008°51'0 0.0
2014-Sep-29 22:30N 37°56' W 008°51'0 0.0
2014-Sep-29 21:33N 37°56' W 008°51'0 0.0
2014-Sep-29 20:33N 37°56' W 008°51'0 0.0
2014-Sep-29 19:30N 37°56' W 008°51'0 0.0
2014-Sep-29 18:33N 37°56' W 008°51'0 0.0
2014-Sep-29 17:33N 37°56' W 008°51'0 0.0
2014-Sep-29 16:33N 37°56' W 008°51'0 0.0
2014-Sep-29 15:33N 37°56' W 008°51'0 0.0
2014-Sep-29 14:33N 37°56' W 008°51'0 0.0
2014-Sep-29 13:33N 37°56' W 008°51'0 0.0
2014-Sep-29 12:33N 37°56' W 008°51'0 0.0
2014-Sep-29 10:30N 37°56' W 008°51'3 1.1
2014-Sep-29 07:31N 37°53' W 008°51'13 6.5
2014-Sep-29 05:34N 37°41' W 008°58'1715.7
2014-Sep-29 04:27N 37°25' W 009°07'3518.0
2014-Sep-29 02:30N 36°51' W 009°17'1919.6
2014-Sep-29 01:33N 36°41' W 008°57'2020.0
2014-Sep-29 00:33N 36°35' W 008°34'2020.1
2014-Sep-28 23:33N 36°29' W 008°10'13619.3
2014-Sep-28 16:29N 36°01' W 005°24'23219.3
2014-Sep-28 04:30N 37°21' W 000°53'2221.8
2014-Sep-28 03:30N 37°35' W 000°32'2021.1
2014-Sep-28 02:33N 37°52' W 000°19'9217.2
2014-Sep-27 21:13N 39°24' W 000°14'4 6.8
2014-Sep-27 20:33N 39°26' W 000°19'0 0.0
2014-Sep-27 19:31N 39°26' W 000°19'0 0.0
2014-Sep-27 18:31N 39°26' W 000°19'0 0.0
2014-Sep-27 17:31N 39°26' W 000°19'0 0.0
2014-Sep-27 16:28N 39°26' W 000°19'0 0.0
2014-Sep-27 15:31N 39°26' W 000°19'0 0.0
2014-Sep-27 14:07N 39°26' W 000°19'0 0.0
2014-Sep-27 13:28N 39°26' W 000°19'0 0.0
2014-Sep-27 12:28N 39°26' W 000°19'0 0.0
2014-Sep-27 11:16N 39°26' W 000°19'0 0.0
2014-Sep-27 10:31N 39°26' W 000°19'0 0.0
2014-Sep-27 09:31N 39°26' W 000°19'0 0.0
2014-Sep-27 08:28N 39°26' W 000°19'0 0.0
2014-Sep-27 07:31N 39°26' W 000°19'0 0.0
2014-Sep-27 06:28N 39°26' W 000°19'1 0.8
2014-Sep-27 05:33N 39°26' W 000°18'9 9.5
2014-Sep-27 04:33N 39°28' W 000°07'5919.5
2014-Sep-27 01:33N 39°54' E 001°02'2019.6
2014-Sep-27 00:33N 40°05' E 001°23'1919.5
2014-Sep-26 23:33N 40°15' E 001°45'1919.5
2014-Sep-26 22:33N 40°25' E 002°07'1919.3
2014-Sep-26 21:33N 40°35' E 002°28'2019.8
2014-Sep-26 20:33N 40°46' E 002°50'2020.1
2014-Sep-26 19:33N 40°57' E 003°13'2820.2
2014-Sep-26 18:09N 41°12' E 003°44'1219.3
2014-Sep-26 17:31N 41°18' E 003°59'1819.4
2014-Sep-26 16:33N 41°28' E 004°20'2019.7
2014-Sep-26 15:32N 41°38' E 004°43'2220.2
2014-Sep-26 14:27N 41°49' E 005°08'1919.4
2014-Sep-26 13:28N 42°00' E 005°29'2519.7
2014-Sep-26 12:12N 42°14' E 005°57'5219.6
2014-Sep-26 09:33N 42°41' E 006°57'2019.9
2014-Sep-26 08:33N 42°51' E 007°20'8120.1
2014-Sep-26 04:33N 43°34' E 008°54'2019.6
2014-Sep-26 03:33N 43°45' E 009°16'1919.5
2014-Sep-26 02:33N 43°55' E 009°39'1313.4
2014-Sep-26 01:33N 44°06' E 009°51'1 0.8
2014-Sep-26 00:33N 44°06' E 009°51'0 0.0
2014-Sep-25 23:31N 44°06' E 009°51'0 0.0
2014-Sep-25 22:31N 44°06' E 009°51'0 0.0
2014-Sep-25 21:31N 44°06' E 009°51'0 0.0
2014-Sep-25 20:31N 44°06' E 009°51'0 0.0
2014-Sep-25 19:31N 44°06' E 009°51'0 0.0
2014-Sep-25 18:31N 44°06' E 009°51'0 0.0
2014-Sep-25 17:31N 44°06' E 009°51'0 0.0
2014-Sep-25 16:31N 44°06' E 009°51'0 0.0
2014-Sep-25 15:31N 44°06' E 009°51'0 0.0
2014-Sep-25 14:31N 44°06' E 009°51'0 0.0
2014-Sep-25 13:31N 44°06' E 009°51'0 0.0
2014-Sep-25 12:31N 44°06' E 009°51'0 0.0
2014-Sep-25 11:31N 44°06' E 009°51'0 0.0
2014-Sep-25 10:31N 44°06' E 009°51'0 0.0
2014-Sep-25 09:31N 44°06' E 009°51'0 0.0
2014-Sep-25 08:31N 44°06' E 009°51'0 0.0
2014-Sep-25 07:31N 44°06' E 009°51'0 0.0
2014-Sep-25 06:31N 44°06' E 009°51'0 0.0
2014-Sep-25 05:31N 44°06' E 009°51'0 0.0
2014-Sep-25 04:31N 44°06' E 009°51'0 0.0
2014-Sep-25 03:31N 44°06' E 009°51'0 0.0
2014-Sep-25 02:31N 44°06' E 009°51'0 0.0
2014-Sep-25 01:31N 44°06' E 009°51'0 0.0
2014-Sep-25 00:31N 44°06' E 009°51'0 0.0
2014-Sep-24 23:31N 44°06' E 009°51'0 0.0
2014-Sep-24 22:31N 44°06' E 009°51'4 4.3
2014-Sep-24 21:33N 44°03' E 009°53'1211.9
2014-Sep-24 20:33N 43°51' E 009°52'1413.8
2014-Sep-24 19:34N 43°38' E 009°46'1515.2
2014-Sep-24 18:34N 43°23' E 009°46'1615.7
2014-Sep-24 17:34N 43°09' E 009°56'1515.0
2014-Sep-24 16:33N 42°54' E 010°01'1514.7
2014-Sep-24 15:32N 42°40' E 010°07'1515.5
2014-Sep-24 14:33N 42°29' E 010°23'1515.5
2014-Sep-24 13:33N 42°19' E 010°38'311 6.3
2014-Sep-22 12:11N 38°17' E 014°55'4616.0
2014-Sep-22 09:18N 38°17' E 013°56'1216.2
2014-Sep-22 08:33N 38°17' E 013°41'1616.0
2014-Sep-22 07:33N 38°17' E 013°20'1616.3
2014-Sep-22 06:33N 38°16' E 012°59'1615.8
2014-Sep-22 05:33N 38°16' E 012°39'11815.9
2014-Sep-21 22:06N 37°59' E 010°10'916.1
2014-Sep-21 21:32N 37°58' E 009°59'1616.1
2014-Sep-21 20:33N 37°56' E 009°39'1616.3
2014-Sep-21 19:33N 37°53' E 009°19'1616.5
2014-Sep-21 18:33N 37°50' E 008°58'1716.5
2014-Sep-21 17:33N 37°47' E 008°38'1716.3
2014-Sep-21 16:32N 37°45' E 008°17'7116.1
2014-Sep-21 12:09N 37°33' E 006°49'4216.1
2014-Sep-21 09:30N 37°26' E 005°56'3717.6
2014-Sep-21 07:25N 37°20' E 005°10'4219.1
2014-Sep-21 05:12N 37°14' E 004°18'3819.7
2014-Sep-21 03:17N 37°07' E 003°31'1419.6
2014-Sep-21 02:33N 37°05' E 003°13'2019.8
2014-Sep-21 01:33N 37°02' E 002°49'2019.7
2014-Sep-21 00:33N 36°59' E 002°25'2019.7
2014-Sep-20 23:33N 36°55' E 002°00'2019.9
2014-Sep-20 22:34N 36°52' E 001°36'6119.4
2014-Sep-20 19:26N 36°42' E 000°21'1719.5
2014-Sep-20 18:33N 36°39' E 000°00'2019.5
2014-Sep-20 17:31N 36°36' W 000°25'1818.9
2014-Sep-20 16:33N 36°33' W 000°47'4319.3
2014-Sep-20 14:19N 36°26' W 001°40'1619.2
2014-Sep-20 13:28N 36°23' W 001°60'  

Dump ship's entire track history